TimeEST,TemperatureF,Dew PointF,Humidity,Sea Level PressureIn,VisibilityMPH,Wind Direction,Wind SpeedMPH,Gust SpeedMPH,PrecipitationIn,Events,Conditions,WindDirDegrees,DateUTC
12:15 AM,25.7,24.6,96,30.20,10.0,Calm,Calm,-,N/A,,Clear,0,2013-01-20 05:15:00
12:35 AM,25.2,23.9,95,30.20,10.0,Calm,Calm,-,N/A,,Clear,0,2013-01-20 05:35:00
1:15 AM,25.0,23.7,95,30.20,10.0,Calm,Calm,-,N/A,,Clear,0,2013-01-20 06:15:00
1:35 AM,25.2,23.9,95,30.19,10.0,Calm,Calm,-,N/A,,Clear,0,2013-01-20 06:35:00
1:55 AM,24.3,23.0,95,30.18,10.0,Calm,Calm,-,N/A,,Clear,0,2013-01-20 06:55:00
2:15 AM,24.3,23.0,95,30.19,10.0,Calm,Calm,-,N/A,,Clear,0,2013-01-20 07:15:00
2:35 AM,23.9,22.8,96,30.19,10.0,Calm,Calm,-,N/A,,Clear,0,2013-01-20 07:35:00
2:55 AM,23.9,22.8,96,30.19,10.0,Calm,Calm,-,N/A,,Clear,0,2013-01-20 07:55:00
3:15 AM,23.5,22.5,96,30.18,10.0,Calm,Calm,-,N/A,,Clear,0,2013-01-20 08:15:00
3:35 AM,23.7,22.8,96,30.18,10.0,Calm,Calm,-,N/A,,Clear,0,2013-01-20 08:35:00
3:55 AM,22.3,21.2,96,30.19,10.0,Calm,Calm,-,N/A,,Clear,0,2013-01-20 08:55:00
4:15 AM,23.0,22.1,96,30.18,10.0,Calm,Calm,-,N/A,,Clear,0,2013-01-20 09:15:00
4:35 AM,22.1,20.8,95,30.18,10.0,Calm,Calm,-,N/A,,Clear,0,2013-01-20 09:35:00
4:55 AM,22.1,21.2,96,30.18,10.0,Calm,Calm,-,N/A,,Clear,0,2013-01-20 09:55:00
5:15 AM,22.6,21.6,96,30.18,10.0,Calm,Calm,-,N/A,,Clear,0,2013-01-20 10:15:00
5:35 AM,22.1,21.0,96,30.17,10.0,Calm,Calm,-,N/A,,Clear,0,2013-01-20 10:35:00
5:55 AM,22.5,21.2,95,30.17,10.0,Calm,Calm,-,N/A,,Clear,0,2013-01-20 10:55:00
6:15 AM,22.5,21.2,95,30.17,10.0,Calm,Calm,-,N/A,,Clear,0,2013-01-20 11:15:00
6:35 AM,21.9,20.7,95,30.17,10.0,Calm,Calm,-,N/A,,Clear,0,2013-01-20 11:35:00
6:55 AM,22.3,21.2,96,30.17,10.0,Calm,Calm,-,N/A,,Clear,0,2013-01-20 11:55:00
7:15 AM,21.9,20.5,94,30.18,10.0,Calm,Calm,-,N/A,,Clear,0,2013-01-20 12:15:00
7:35 AM,22.6,21.6,96,30.18,10.0,Calm,Calm,-,N/A,,Clear,0,2013-01-20 12:35:00
7:55 AM,21.9,20.7,95,30.18,10.0,Calm,Calm,-,N/A,,Clear,0,2013-01-20 12:55:00
8:15 AM,22.5,21.0,94,30.18,10.0,Calm,Calm,-,N/A,,Clear,0,2013-01-20 13:15:00
8:35 AM,24.3,23.0,95,30.18,10.0,Calm,Calm,-,N/A,,Clear,0,2013-01-20 13:35:00
8:55 AM,25.9,24.8,96,30.18,10.0,Calm,Calm,-,N/A,,Clear,0,2013-01-20 13:55:00
9:15 AM,28.4,27.0,94,30.18,10.0,Calm,Calm,-,N/A,,Clear,0,2013-01-20 14:15:00
9:35 AM,30.6,28.8,93,30.18,10.0,Calm,Calm,-,N/A,,Clear,0,2013-01-20 14:35:00
9:55 AM,32.5,28.0,83,30.18,10.0,Calm,Calm,-,N/A,,Clear,0,2013-01-20 14:55:00
10:15 AM,35.6,28.8,76,30.18,10.0,Calm,Calm,-,N/A,,Clear,0,2013-01-20 15:15:00
10:35 AM,40.1,31.6,72,30.18,10.0,Calm,Calm,-,N/A,,Clear,0,2013-01-20 15:35:00
10:55 AM,46.4,32.0,57,30.17,10.0,WNW,6.9,-,N/A,,Clear,300,2013-01-20 15:55:00
11:15 AM,48.2,30.2,50,30.16,10.0,WNW,3.5,-,N/A,,Clear,300,2013-01-20 16:15:00
11:35 AM,49.8,30.4,47,30.16,10.0,Calm,Calm,-,N/A,,Clear,0,2013-01-20 16:35:00
11:55 AM,51.3,29.8,44,30.14,10.0,West,4.6,-,N/A,,Clear,280,2013-01-20 16:55:00
12:15 PM,52.5,29.5,41,30.13,10.0,NNW,4.6,-,N/A,,Clear,330,2013-01-20 17:15:00
12:35 PM,54.0,29.1,39,30.11,10.0,NNW,3.5,-,N/A,,Clear,340,2013-01-20 17:35:00
1:15 PM,55.4,28.0,35,30.10,10.0,NNW,6.9,-,N/A,,Clear,340,2013-01-20 18:15:00
1:35 PM,56.1,26.6,32,30.09,10.0,NW,6.9,-,N/A,,Clear,310,2013-01-20 18:35:00
1:55 PM,56.7,25.9,31,30.08,10.0,North,5.8,-,N/A,,Clear,350,2013-01-20 18:55:00
2:15 PM,57.2,24.3,28,30.08,10.0,NNW,11.5,16.1,N/A,,Clear,330,2013-01-20 19:15:00
2:35 PM,57.2,23.2,27,30.08,10.0,North,12.7,17.3,N/A,,Clear,360,2013-01-20 19:35:00
2:55 PM,56.7,21.9,26,30.07,10.0,NNE,4.6,-,N/A,,Clear,20,2013-01-20 19:55:00
3:15 PM,56.5,22.6,27,30.07,10.0,North,9.2,-,N/A,,Clear,360,2013-01-20 20:15:00
3:35 PM,56.7,21.7,26,30.06,10.0,NNW,6.9,-,N/A,,Clear,340,2013-01-20 20:35:00
4:15 PM,55.9,19.8,24,30.08,10.0,WNW,6.9,-,N/A,,Clear,300,2013-01-20 21:15:00
4:35 PM,55.4,19.0,24,30.08,10.0,NNW,6.9,-,N/A,,Clear,330,2013-01-20 21:35:00
4:55 PM,54.3,18.5,25,30.09,10.0,NNW,10.4,-,N/A,,Clear,330,2013-01-20 21:55:00
5:15 PM,53.1,18.7,26,30.09,10.0,North,9.2,-,N/A,,Clear,360,2013-01-20 22:15:00
5:35 PM,51.1,19.9,29,30.09,10.0,North,9.2,-,N/A,,Clear,350,2013-01-20 22:35:00
5:55 PM,49.6,20.7,32,30.10,10.0,NNW,6.9,-,N/A,,Clear,340,2013-01-20 22:55:00
6:15 PM,48.9,21.6,34,30.10,10.0,NW,8.1,-,N/A,,Clear,320,2013-01-20 23:15:00
6:35 PM,48.7,22.8,36,30.10,10.0,NNW,6.9,-,N/A,,Clear,340,2013-01-20 23:35:00
6:55 PM,47.5,22.6,38,30.11,10.0,Calm,Calm,-,N/A,,Clear,0,2013-01-20 23:55:00
7:15 PM,47.1,23.5,40,30.11,10.0,NW,4.6,-,N/A,,Clear,310,2013-01-21 00:15:00
7:55 PM,40.1,26.6,59,30.11,10.0,SSE,3.5,-,N/A,,Clear,160,2013-01-21 00:55:00
8:15 PM,37.9,27.0,65,30.12,10.0,Calm,Calm,-,N/A,,Clear,0,2013-01-21 01:15:00
8:35 PM,35.6,27.1,71,30.12,10.0,Calm,Calm,-,N/A,,Clear,0,2013-01-21 01:35:00
8:55 PM,33.8,28.0,79,30.12,10.0,Calm,Calm,-,N/A,,Clear,0,2013-01-21 01:55:00
9:15 PM,32.9,27.3,80,30.11,10.0,Calm,Calm,-,N/A,,Clear,0,2013-01-21 02:15:00
9:35 PM,32.0,27.1,82,30.11,10.0,Calm,Calm,-,N/A,,Clear,0,2013-01-21 02:35:00
9:55 PM,30.4,27.1,88,30.11,10.0,Calm,Calm,-,N/A,,Clear,0,2013-01-21 02:55:00
10:15 PM,30.6,27.5,88,30.12,10.0,Calm,Calm,-,N/A,,Clear,0,2013-01-21 03:15:00
10:35 PM,29.7,26.6,88,30.12,10.0,Calm,Calm,-,N/A,,Clear,0,2013-01-21 03:35:00
10:55 PM,28.9,25.7,88,30.12,10.0,Calm,Calm,-,N/A,,Clear,0,2013-01-21 03:55:00
11:15 PM,28.6,26.6,92,30.12,10.0,Calm,Calm,-,N/A,,Clear,0,2013-01-21 04:15:00
11:35 PM,27.9,26.2,94,30.12,10.0,Calm,Calm,-,N/A,,Clear,0,2013-01-21 04:35:00
11:55 PM,27.7,26.1,94,30.11,10.0,Calm,Calm,-,N/A,,Clear,0,2013-01-21 04:55:00